X  Zatvori METAR podaci zračne luke     EGNS Isle of Man Airport
Temperatura
14°C Temperatura
12°C Točka rosišta
88% Vlaga



Vjetar
4 M/S
10 MPS
16 KM/S
9 Čvorovi



240°
ZJZ
Trenutna situacija

Djelimično oblačno Djelimično oblačno
Tlak zraka 1004.06 (hPa) - 29.65 (inHg)
Vidljivost 6 (milje) - 9.7 (km)
Zračna luka
Kôd zračne luke EGNS

Lokacija: Isle of Man Airport
Udaljenost: 18 (km)

Metar:
EGNS 281650Z 24009KT 9999 FEW022 SCT045 14/12 Q1004 NOSIG

Vrijeme: 28-05-2024 17:50 BST